createdAt,value
2018-07-26T00:07:20.252Z,20.71
2018-07-26T00:17:17.632Z,20.62
2018-07-26T00:27:13.364Z,20.46
2018-07-26T00:37:11.683Z,20.53
2018-07-26T00:47:10.405Z,20.06
2018-07-26T00:57:07.234Z,20.19
2018-07-26T01:07:04.180Z,19.95
2018-07-26T01:16:59.216Z,19.94
2018-07-26T01:26:55.556Z,19.79
2018-07-26T01:36:53.515Z,20.19
2018-07-26T01:46:51.250Z,20.49
2018-07-26T01:56:46.658Z,20.06
2018-07-26T02:06:41.153Z,19.78
2018-07-26T02:16:38.229Z,19.54
2018-07-26T02:26:32.948Z,19.54
2018-07-26T02:36:30.558Z,20.12
2018-07-26T02:46:30.594Z,21.01
2018-07-26T02:56:27.664Z,19.91
2018-07-26T03:06:24.778Z,19.93
2018-07-26T03:16:22.792Z,20.27
2018-07-26T03:26:22.147Z,21.09
2018-07-26T03:36:17.693Z,20.12
2018-07-26T03:46:12.031Z,20.46
2018-07-26T03:56:10.553Z,20.09
2018-07-26T04:06:07.138Z,19.60
2018-07-26T04:16:00.291Z,19.55
2018-07-26T04:25:59.779Z,19.71
2018-07-26T04:35:55.885Z,19.69
2018-07-26T04:45:53.267Z,20.23
2018-07-26T04:55:51.084Z,20.28
2018-07-26T05:05:49.352Z,20.66
2018-07-26T05:15:45.231Z,21.16
2018-07-26T05:25:40.352Z,21.19
2018-07-26T05:35:38.066Z,21.42
2018-07-26T05:45:36.653Z,21.57
2018-07-26T05:55:36.031Z,21.63
2018-07-26T06:05:32.807Z,21.95
2018-07-26T06:15:31.200Z,22.26
2018-07-26T06:25:30.787Z,22.75
2018-07-26T06:35:26.164Z,23.04
2018-07-26T06:45:24.808Z,23.26
2018-07-26T06:55:22.614Z,23.64
2018-07-26T07:05:16.446Z,23.58
2018-07-26T07:15:15.005Z,23.40
2018-07-26T07:25:08.378Z,23.49
2018-07-26T07:35:06.135Z,23.68
2018-07-26T07:45:06.179Z,24.27
2018-07-26T07:55:02.422Z,24.76
2018-07-26T08:04:58.922Z,24.91
2018-07-26T08:14:57.922Z,25.01
2018-07-26T08:24:56.815Z,24.90
2018-07-26T08:34:50.791Z,25.13
2018-07-26T08:44:47.234Z,24.93
2018-07-26T08:54:45.855Z,25.13
2018-07-26T09:04:44.227Z,25.46
2018-07-26T09:14:40.763Z,25.90
2018-07-26T09:24:40.654Z,26.30
2018-07-26T09:34:37.686Z,26.12
2018-07-26T09:44:35.589Z,26.75
2018-07-26T09:54:34.251Z,27.09
2018-07-26T10:04:29.680Z,27.23
2018-07-26T10:14:28.558Z,27.29
2018-07-26T10:24:08.095Z,27.72
2018-07-26T10:34:03.021Z,26.72
2018-07-26T10:44:02.098Z,27.09
2018-07-26T10:54:01.624Z,27.70
2018-07-26T11:03:40.524Z,28.44
2018-07-26T11:13:35.621Z,25.34
2018-07-26T11:23:27.997Z,22.44
2018-07-26T11:33:22.789Z,22.20
2018-07-26T11:43:15.595Z,23.09
2018-07-26T11:53:16.114Z,23.67
2018-07-26T12:03:14.715Z,24.79
2018-07-26T12:13:16.123Z,27.72
2018-07-26T12:23:14.499Z,25.86
2018-07-26T12:33:07.351Z,23.48
2018-07-26T12:43:04.008Z,23.02
2018-07-26T12:52:57.925Z,22.81
2018-07-26T13:02:51.748Z,22.77
2018-07-26T13:12:50.430Z,22.44
2018-07-26T13:22:45.162Z,22.31
2018-07-26T13:32:42.568Z,24.90
2018-07-26T13:42:41.960Z,23.72
2018-07-26T13:52:37.786Z,22.17
2018-07-26T14:02:32.031Z,21.75
2018-07-26T14:12:26.470Z,21.89
2018-07-26T14:22:24.484Z,22.47
2018-07-26T14:32:19.850Z,22.04
2018-07-26T14:42:16.456Z,22.17
2018-07-26T14:52:16.015Z,22.37
2018-07-26T15:02:16.343Z,24.80
2018-07-26T15:12:23.135Z,27.20
2018-07-26T15:22:15.299Z,26.65
2018-07-26T15:32:11.339Z,26.16
2018-07-26T15:42:02.348Z,24.27
2018-07-26T15:51:54.740Z,23.49
2018-07-26T16:01:49.553Z,23.14
2018-07-26T16:11:43.917Z,22.87
2018-07-26T16:21:38.765Z,22.87
2018-07-26T16:31:34.600Z,22.71
2018-07-26T16:41:30.789Z,22.53
2018-07-26T16:51:23.575Z,22.12
2018-07-26T17:01:17.451Z,21.67
2018-07-26T17:11:15.730Z,21.60
2018-07-26T17:21:09.060Z,21.81
2018-07-26T17:31:06.109Z,21.89
2018-07-26T17:41:05.163Z,21.82
2018-07-26T17:51:02.686Z,21.57
2018-07-26T18:00:58.950Z,21.20
2018-07-26T18:10:54.118Z,21.45
2018-07-26T18:20:51.819Z,21.36
2018-07-26T18:30:47.168Z,21.09
2018-07-26T18:40:43.346Z,20.79
2018-07-26T18:50:35.762Z,20.65
2018-07-26T19:00:32.194Z,20.62
2018-07-26T19:10:26.408Z,20.51
2018-07-26T19:20:24.068Z,20.50
2018-07-26T19:30:19.588Z,20.53
2018-07-26T19:40:13.680Z,20.27
2018-07-26T19:50:09.930Z,20.40
2018-07-26T20:00:04.055Z,20.35
2018-07-26T20:09:57.128Z,20.26
2018-07-26T20:19:51.749Z,20.03
2018-07-26T20:29:46.445Z,19.95
2018-07-26T20:39:42.214Z,19.69
2018-07-26T20:49:37.926Z,19.63
2018-07-26T20:59:24.496Z,19.57
2018-07-26T21:09:20.103Z,19.35
2018-07-26T21:19:18.166Z,19.31
2018-07-26T21:29:16.457Z,19.11
2018-07-26T21:39:13.540Z,18.97
2018-07-26T21:49:09.042Z,18.89
2018-07-26T21:59:06.435Z,18.61
2018-07-26T22:09:05.274Z,18.49
2018-07-26T22:19:01.789Z,18.44
2018-07-26T22:28:55.589Z,18.32
2018-07-26T22:38:53.401Z,18.18
2018-07-26T22:48:52.038Z,18.09
2018-07-26T22:58:49.418Z,18.14
2018-07-26T23:08:44.934Z,18.09
2018-07-26T23:18:40.124Z,18.07
2018-07-26T23:28:36.412Z,18.07
2018-07-26T23:38:31.720Z,17.98
2018-07-26T23:48:27.013Z,17.96
2018-07-26T23:58:23.766Z,17.89
